createdAt,value
2023-04-16T00:01:51.694Z,3.15
2023-04-16T00:04:18.892Z,3.65
2023-04-16T00:06:45.926Z,4.40
2023-04-16T00:09:12.827Z,4.40
2023-04-16T00:11:39.551Z,4.25
2023-04-16T00:14:06.445Z,4.45
2023-04-16T00:16:33.294Z,4.38
2023-04-16T00:19:00.027Z,4.70
2023-04-16T00:21:26.845Z,4.63
2023-04-16T00:23:53.612Z,4.78
2023-04-16T00:26:20.614Z,4.93
2023-04-16T00:28:48.565Z,4.72
2023-04-16T00:31:15.506Z,4.80
2023-04-16T00:33:42.698Z,4.72
2023-04-16T00:36:09.738Z,5.43
2023-04-16T00:38:37.160Z,4.57
2023-04-16T00:41:04.019Z,4.82
2023-04-16T00:43:31.737Z,4.78
2023-04-16T00:45:59.023Z,4.78
2023-04-16T00:48:28.246Z,4.53
2023-04-16T00:50:55.943Z,4.57
2023-04-16T00:53:23.208Z,4.07
2023-04-16T00:55:50.581Z,4.22
2023-04-16T00:58:17.548Z,4.13
2023-04-16T01:00:44.326Z,3.63
2023-04-16T01:03:11.480Z,3.67
2023-04-16T01:05:38.692Z,3.90
2023-04-16T01:08:05.671Z,4.40
2023-04-16T01:10:32.523Z,3.88
2023-04-16T01:12:59.335Z,3.60
2023-04-16T01:15:26.176Z,4.13
2023-04-16T01:17:53.075Z,4.40
2023-04-16T01:20:19.955Z,4.20
2023-04-16T01:22:49.141Z,4.80
2023-04-16T01:25:16.364Z,5.20
2023-04-16T01:27:43.256Z,5.40
2023-04-16T01:30:10.370Z,5.78
2023-04-16T01:32:50.340Z,5.95
2023-04-16T01:35:18.376Z,5.20
2023-04-16T01:37:45.335Z,5.38
2023-04-16T01:40:14.624Z,6.55
2023-04-16T01:42:41.500Z,6.32
2023-04-16T01:45:08.621Z,6.03
2023-04-16T01:47:35.983Z,6.47
2023-04-16T01:50:05.074Z,6.03
2023-04-16T01:52:32.039Z,6.43
2023-04-16T01:54:58.844Z,6.35
2023-04-16T01:57:25.720Z,6.00
2023-04-16T01:59:53.194Z,6.22
2023-04-16T02:02:24.067Z,6.68
2023-04-16T02:04:51.205Z,5.50
2023-04-16T02:07:18.113Z,6.70
2023-04-16T02:09:45.070Z,6.78
2023-04-16T02:12:11.996Z,5.88
2023-04-16T02:14:38.897Z,5.32
2023-04-16T02:17:06.166Z,5.63
2023-04-16T02:19:42.828Z,5.70
2023-04-16T02:22:10.538Z,5.03
2023-04-16T02:24:37.381Z,5.78
2023-04-16T02:27:08.320Z,5.82
2023-04-16T02:29:35.790Z,4.93
2023-04-16T02:32:11.977Z,5.38
2023-04-16T02:34:42.662Z,5.60
2023-04-16T02:37:09.857Z,5.40
2023-04-16T02:39:37.101Z,5.82
2023-04-16T02:42:03.930Z,5.93
2023-04-16T02:44:30.820Z,6.03
2023-04-16T02:46:57.508Z,6.70
2023-04-16T02:49:24.274Z,6.35
2023-04-16T02:51:51.138Z,6.57
2023-04-16T02:54:17.922Z,6.80
2023-04-16T02:56:44.671Z,6.47
2023-04-16T02:59:11.489Z,7.43
2023-04-16T03:01:38.594Z,7.28
2023-04-16T03:04:05.715Z,8.10
2023-04-16T03:06:32.834Z,7.18
2023-04-16T03:08:59.662Z,7.47
2023-04-16T03:11:26.654Z,7.50
2023-04-16T03:13:53.969Z,7.93
2023-04-16T03:16:20.892Z,8.45
2023-04-16T03:18:47.751Z,8.25
2023-04-16T03:21:17.401Z,7.00
2023-04-16T03:23:44.612Z,6.32
2023-04-16T03:26:11.371Z,8.60
2023-04-16T03:28:38.352Z,8.73
2023-04-16T03:31:05.218Z,8.27
2023-04-16T03:33:31.998Z,8.10
2023-04-16T03:35:58.975Z,8.00
2023-04-16T03:38:28.963Z,8.25
2023-04-16T03:40:57.525Z,7.88
2023-04-16T03:43:24.549Z,7.60
2023-04-16T03:45:51.473Z,7.40
2023-04-16T03:48:21.592Z,7.60
2023-04-16T03:50:48.583Z,7.70
2023-04-16T03:53:17.483Z,7.15
2023-04-16T03:55:45.498Z,7.88
2023-04-16T03:58:12.280Z,7.10
2023-04-16T04:00:41.345Z,6.32
2023-04-16T04:03:19.320Z,6.75
2023-04-16T04:05:48.949Z,6.10
2023-04-16T04:08:21.575Z,6.20
2023-04-16T04:10:48.498Z,7.25
2023-04-16T04:13:15.871Z,7.00
2023-04-16T04:15:44.010Z,7.47
2023-04-16T04:18:10.723Z,7.60
2023-04-16T04:20:41.323Z,8.02
2023-04-16T04:23:08.715Z,7.63
2023-04-16T04:25:36.112Z,6.95
2023-04-16T04:28:02.908Z,7.07
2023-04-16T04:30:29.560Z,8.18
2023-04-16T04:32:56.383Z,7.70
2023-04-16T04:35:23.180Z,8.10
2023-04-16T04:37:50.835Z,8.35
2023-04-16T04:40:19.941Z,7.90
2023-04-16T04:42:46.952Z,8.45
2023-04-16T04:45:13.889Z,8.02
2023-04-16T04:47:41.543Z,8.18
2023-04-16T04:50:08.660Z,7.63
2023-04-16T04:52:35.974Z,8.27
2023-04-16T04:55:03.692Z,8.95
2023-04-16T04:57:33.461Z,9.55
2023-04-16T05:00:04.024Z,8.65
2023-04-16T05:02:39.253Z,9.57
2023-04-16T05:05:06.324Z,10.43
2023-04-16T05:07:33.171Z,9.15
2023-04-16T05:10:00.658Z,11.55
2023-04-16T05:12:27.504Z,10.63
2023-04-16T05:14:54.217Z,10.18
2023-04-16T05:17:21.391Z,10.18
2023-04-16T05:19:49.060Z,11.40
2023-04-16T05:22:18.892Z,10.35
2023-04-16T05:24:45.907Z,11.85
2023-04-16T05:27:12.717Z,10.98
2023-04-16T05:29:39.545Z,10.93
2023-04-16T05:32:06.199Z,10.55
2023-04-16T05:34:33.003Z,11.60
2023-04-16T05:36:59.774Z,11.32
2023-04-16T05:39:27.067Z,11.20
2023-04-16T05:41:53.890Z,10.32
2023-04-16T05:44:20.596Z,10.50
2023-04-16T05:46:47.427Z,11.60
2023-04-16T05:49:14.245Z,11.48
2023-04-16T05:51:41.046Z,11.18
2023-04-16T05:54:07.759Z,11.70
2023-04-16T05:56:34.568Z,11.45
2023-04-16T05:59:01.314Z,11.43
2023-04-16T06:01:28.051Z,11.90
2023-04-16T06:03:55.016Z,11.90
2023-04-16T06:06:21.822Z,11.07
2023-04-16T06:08:48.709Z,10.45
2023-04-16T06:11:15.780Z,10.13
2023-04-16T06:13:42.778Z,10.35
2023-04-16T06:16:09.639Z,10.55
2023-04-16T06:18:36.651Z,10.15
2023-04-16T06:21:04.590Z,10.55
2023-04-16T06:23:31.379Z,10.65
2023-04-16T06:25:58.688Z,10.35
2023-04-16T06:28:25.604Z,11.15
2023-04-16T06:30:52.308Z,10.32
2023-04-16T06:33:19.173Z,12.18
2023-04-16T06:35:46.098Z,11.13
2023-04-16T06:38:12.874Z,10.68
2023-04-16T06:40:40.735Z,11.93
2023-04-16T06:43:07.583Z,11.40
2023-04-16T06:45:34.818Z,12.18
2023-04-16T06:48:03.353Z,11.38
2023-04-16T06:50:30.496Z,11.18
2023-04-16T06:52:57.405Z,11.07
2023-04-16T06:55:24.176Z,11.50
2023-04-16T06:57:50.866Z,12.55
2023-04-16T07:00:18.019Z,12.75
2023-04-16T07:02:45.001Z,11.68
2023-04-16T07:05:11.877Z,11.02
2023-04-16T07:07:38.870Z,12.60
2023-04-16T07:10:06.277Z,12.95
2023-04-16T07:12:33.431Z,12.07
2023-04-16T07:15:00.566Z,11.48
2023-04-16T07:17:27.488Z,12.30
2023-04-16T07:19:54.492Z,11.52
2023-04-16T07:22:21.316Z,11.57
2023-04-16T07:24:48.163Z,11.70
2023-04-16T07:27:14.995Z,10.70
2023-04-16T07:29:41.904Z,11.10
2023-04-16T07:32:08.768Z,10.90
2023-04-16T07:34:35.866Z,11.27
2023-04-16T07:37:02.670Z,13.35
2023-04-16T07:39:29.426Z,12.07
2023-04-16T07:41:56.363Z,11.82
2023-04-16T07:44:23.414Z,11.80
2023-04-16T07:46:50.322Z,11.23
2023-04-16T07:49:17.155Z,10.63
2023-04-16T07:51:44.069Z,11.95
2023-04-16T07:54:11.104Z,11.68
2023-04-16T07:56:38.066Z,11.43
2023-04-16T07:59:18.375Z,11.95
2023-04-16T08:01:49.481Z,11.05
2023-04-16T08:04:20.353Z,11.18
2023-04-16T08:06:47.366Z,12.13
2023-04-16T08:09:14.173Z,12.70
2023-04-16T08:11:40.934Z,11.65
2023-04-16T08:14:07.670Z,12.73
2023-04-16T08:16:34.520Z,12.38
2023-04-16T08:19:01.621Z,11.93
2023-04-16T08:21:29.279Z,12.80
2023-04-16T08:23:56.077Z,11.10
2023-04-16T08:26:22.731Z,11.00
2023-04-16T08:28:49.491Z,12.40
2023-04-16T08:31:16.364Z,12.35
2023-04-16T08:33:43.365Z,12.38
2023-04-16T08:36:10.212Z,11.90
2023-04-16T08:38:37.147Z,12.15
2023-04-16T08:41:06.612Z,12.13
2023-04-16T08:43:34.029Z,12.45
2023-04-16T08:46:00.960Z,12.52
2023-04-16T08:48:30.824Z,13.00
2023-04-16T08:50:57.683Z,12.32
2023-04-16T08:53:28.035Z,11.90
2023-04-16T08:55:58.515Z,12.13
2023-04-16T08:58:26.105Z,12.30
2023-04-16T09:00:53.445Z,12.23
2023-04-16T09:03:21.817Z,12.25
2023-04-16T09:05:49.528Z,11.45
2023-04-16T09:08:17.366Z,12.30
2023-04-16T09:10:47.004Z,11.63
2023-04-16T09:13:16.394Z,11.80
2023-04-16T09:15:43.975Z,11.68
2023-04-16T09:18:12.164Z,10.98
2023-04-16T09:20:41.785Z,9.57
2023-04-16T09:23:09.236Z,9.95
2023-04-16T09:25:37.285Z,10.63
2023-04-16T09:28:04.173Z,11.05
2023-04-16T09:30:31.009Z,10.48
2023-04-16T09:33:23.809Z,11.07
2023-04-16T09:35:51.990Z,10.63
2023-04-16T09:38:19.606Z,11.63
2023-04-16T09:40:47.766Z,10.77
2023-04-16T09:43:15.791Z,11.57
2023-04-16T09:45:50.232Z,11.77
2023-04-16T09:48:27.816Z,11.23
2023-04-16T09:50:54.711Z,11.13
2023-04-16T09:53:26.608Z,11.43
2023-04-16T09:55:56.513Z,11.65
2023-04-16T09:58:24.551Z,11.68
2023-04-16T10:01:05.525Z,12.40
2023-04-16T10:03:33.266Z,10.82
2023-04-16T10:06:14.811Z,12.25
2023-04-16T10:08:48.529Z,11.75
2023-04-16T10:11:17.182Z,13.00
2023-04-16T10:13:44.043Z,12.25
2023-04-16T10:16:11.403Z,12.82
2023-04-16T10:18:39.528Z,11.93
2023-04-16T10:21:06.987Z,12.35
2023-04-16T10:23:33.925Z,12.18
2023-04-16T10:26:01.606Z,11.27
2023-04-16T10:28:29.533Z,12.60
2023-04-16T10:30:57.201Z,10.23
2023-04-16T10:33:37.492Z,10.77
2023-04-16T10:36:11.161Z,10.45
2023-04-16T10:38:38.989Z,10.43
2023-04-16T10:41:07.212Z,10.85
2023-04-16T10:43:38.479Z,11.07
2023-04-16T10:46:24.372Z,11.10
2023-04-16T10:48:52.986Z,10.85
2023-04-16T10:51:35.928Z,11.35
2023-04-16T10:54:04.133Z,11.55
2023-04-16T10:56:34.839Z,10.20
2023-04-16T10:59:04.286Z,10.90
2023-04-16T11:01:32.857Z,11.20
2023-04-16T11:04:02.079Z,11.07
2023-04-16T11:06:29.807Z,11.40
2023-04-16T11:08:56.594Z,11.18
2023-04-16T11:11:23.639Z,12.00
2023-04-16T11:13:54.902Z,13.10
2023-04-16T11:16:21.731Z,12.40
2023-04-16T11:18:51.344Z,12.00
2023-04-16T11:21:22.100Z,11.10
2023-04-16T11:23:52.911Z,12.38
2023-04-16T11:26:20.503Z,12.20
2023-04-16T11:28:47.185Z,10.90
2023-04-16T11:31:14.087Z,10.65
2023-04-16T11:33:42.470Z,10.75
2023-04-16T11:36:09.751Z,11.77
2023-04-16T11:38:37.419Z,10.25
2023-04-16T11:41:04.671Z,10.70
2023-04-16T11:43:32.148Z,11.38
2023-04-16T11:46:10.203Z,12.70
2023-04-16T11:48:50.399Z,11.80
2023-04-16T11:51:17.577Z,11.77
2023-04-16T11:53:52.911Z,11.48
2023-04-16T11:56:26.704Z,11.13
2023-04-16T11:59:12.497Z,11.60
2023-04-16T12:01:40.813Z,12.02
2023-04-16T12:04:08.249Z,12.90
2023-04-16T12:06:35.684Z,12.45
2023-04-16T12:09:22.774Z,13.25
2023-04-16T12:11:49.809Z,12.63
2023-04-16T12:14:16.614Z,13.05
2023-04-16T12:16:43.500Z,12.88
2023-04-16T12:19:13.481Z,12.98
2023-04-16T12:21:40.481Z,13.85
2023-04-16T12:24:08.168Z,12.95
2023-04-16T12:26:42.658Z,12.45
2023-04-16T12:29:17.124Z,13.25
2023-04-16T12:31:44.488Z,11.93
2023-04-16T12:34:11.379Z,12.10
2023-04-16T12:36:38.675Z,12.88
2023-04-16T12:39:05.985Z,13.63
2023-04-16T12:41:33.304Z,12.80
2023-04-16T12:44:09.041Z,13.68
2023-04-16T12:46:37.444Z,13.60
2023-04-16T12:49:04.165Z,13.32
2023-04-16T12:51:31.342Z,12.05
2023-04-16T12:53:58.138Z,13.52
2023-04-16T12:56:24.967Z,14.05
2023-04-16T12:58:53.294Z,14.00
2023-04-16T13:01:20.424Z,14.25
2023-04-16T13:03:47.938Z,13.30
2023-04-16T13:06:15.700Z,12.68
2023-04-16T13:08:43.246Z,14.13
2023-04-16T13:11:10.705Z,14.18
2023-04-16T13:13:37.539Z,14.77
2023-04-16T13:16:06.655Z,13.63
2023-04-16T13:18:33.731Z,15.02
2023-04-16T13:21:00.699Z,13.85
2023-04-16T13:23:27.582Z,13.65
2023-04-16T13:25:54.708Z,13.57
2023-04-16T13:28:21.662Z,13.82
2023-04-16T13:30:48.633Z,13.45
2023-04-16T13:33:15.529Z,12.00
2023-04-16T13:35:42.381Z,12.90
2023-04-16T13:38:09.252Z,13.65
2023-04-16T13:40:36.187Z,13.02
2023-04-16T13:43:03.545Z,11.65
2023-04-16T13:45:30.919Z,12.00
2023-04-16T13:47:57.737Z,12.38
2023-04-16T13:50:24.698Z,11.55
2023-04-16T13:52:51.664Z,12.07
2023-04-16T13:55:19.238Z,11.77
2023-04-16T13:57:47.255Z,13.82
2023-04-16T14:00:15.288Z,13.30
2023-04-16T14:02:42.834Z,13.30
2023-04-16T14:05:09.816Z,13.93
2023-04-16T14:07:37.200Z,12.82
2023-04-16T14:10:04.137Z,12.00
2023-04-16T14:12:31.854Z,12.27
2023-04-16T14:14:58.798Z,12.43
2023-04-16T14:17:25.809Z,12.27
2023-04-16T14:19:52.752Z,12.73
2023-04-16T14:22:20.485Z,13.68
2023-04-16T14:24:47.195Z,12.02
2023-04-16T14:27:14.129Z,12.90
2023-04-16T14:29:41.503Z,12.80
2023-04-16T14:32:08.670Z,12.27
2023-04-16T14:34:37.151Z,12.73
2023-04-16T14:37:04.274Z,11.95
2023-04-16T14:39:31.375Z,12.25
2023-04-16T14:41:58.271Z,13.45
2023-04-16T14:44:25.241Z,12.63
2023-04-16T14:46:52.262Z,13.25
2023-04-16T14:49:19.400Z,13.70
2023-04-16T14:51:46.733Z,12.63
2023-04-16T14:54:13.815Z,12.80
2023-04-16T14:56:40.808Z,12.43
2023-04-16T14:59:08.093Z,13.90
2023-04-16T15:01:36.148Z,14.43
2023-04-16T15:04:03.654Z,14.32
2023-04-16T15:06:32.410Z,13.60
2023-04-16T15:08:59.226Z,12.82
2023-04-16T15:11:26.790Z,14.02
2023-04-16T15:13:55.983Z,14.00
2023-04-16T15:16:23.508Z,13.85
2023-04-16T15:18:50.644Z,14.45
2023-04-16T15:21:17.466Z,14.68
2023-04-16T15:23:46.018Z,14.55
2023-04-16T15:26:12.820Z,15.40
2023-04-16T15:28:39.673Z,15.27
2023-04-16T15:31:07.201Z,15.07
2023-04-16T15:33:34.245Z,15.73
2023-04-16T15:36:01.078Z,15.55
2023-04-16T15:38:30.678Z,15.15
2023-04-16T15:41:00.758Z,15.35
2023-04-16T15:43:28.959Z,15.98
2023-04-16T15:45:56.493Z,15.43
2023-04-16T15:48:23.720Z,14.65
2023-04-16T15:50:50.828Z,17.05
2023-04-16T15:53:17.566Z,17.35
2023-04-16T15:55:44.621Z,15.50
2023-04-16T15:58:11.381Z,15.35
2023-04-16T16:00:38.104Z,14.80
2023-04-16T16:03:05.138Z,15.63
2023-04-16T16:05:32.291Z,14.90
2023-04-16T16:07:59.019Z,15.85
2023-04-16T16:10:26.137Z,16.05
2023-04-16T16:12:53.066Z,14.70
2023-04-16T16:15:19.998Z,14.75
2023-04-16T16:17:46.821Z,14.75
2023-04-16T16:20:14.617Z,17.52
2023-04-16T16:22:43.034Z,16.58
2023-04-16T16:25:10.486Z,16.80
2023-04-16T16:27:37.292Z,17.30
2023-04-16T16:30:06.529Z,17.48
2023-04-16T16:32:33.680Z,16.98
2023-04-16T16:35:00.378Z,16.88
2023-04-16T16:37:28.319Z,17.50
2023-04-16T16:39:55.100Z,17.17
2023-04-16T16:42:21.888Z,17.50
2023-04-16T16:44:48.951Z,16.90
2023-04-16T16:47:15.965Z,17.30
2023-04-16T16:49:43.693Z,16.75
2023-04-16T16:52:10.986Z,17.50
2023-04-16T16:54:37.804Z,17.90
2023-04-16T16:57:04.600Z,16.33
2023-04-16T16:59:31.440Z,16.58
2023-04-16T17:01:58.316Z,16.55
2023-04-16T17:04:25.686Z,16.10
2023-04-16T17:06:52.690Z,16.15
2023-04-16T17:09:19.441Z,17.05
2023-04-16T17:11:46.360Z,16.75
2023-04-16T17:14:13.167Z,14.48
2023-04-16T17:16:40.446Z,16.08
2023-04-16T17:19:07.362Z,15.30
2023-04-16T17:21:34.060Z,15.55
2023-04-16T17:24:01.110Z,15.98
2023-04-16T17:26:27.890Z,16.20
2023-04-16T17:28:56.654Z,15.48
2023-04-16T17:31:27.306Z,16.23
2023-04-16T17:33:54.301Z,16.73
2023-04-16T17:36:22.886Z,16.67
2023-04-16T17:38:50.679Z,17.00
2023-04-16T17:41:17.440Z,17.55
2023-04-16T17:43:46.637Z,16.63
2023-04-16T17:46:13.470Z,17.25
2023-04-16T17:48:40.703Z,17.95
2023-04-16T17:51:15.574Z,17.27
2023-04-16T17:53:43.588Z,18.63
2023-04-16T17:56:10.867Z,20.35
2023-04-16T17:58:37.912Z,18.23
2023-04-16T18:01:05.272Z,19.30
2023-04-16T18:03:32.837Z,18.30
2023-04-16T18:05:59.922Z,18.38
2023-04-16T18:08:26.979Z,18.88
2023-04-16T18:10:55.367Z,19.88
2023-04-16T18:13:22.655Z,18.42
2023-04-16T18:15:49.717Z,18.52
2023-04-16T18:18:16.678Z,17.98
2023-04-16T18:20:43.431Z,17.67
2023-04-16T18:23:10.546Z,19.60
2023-04-16T18:25:37.333Z,19.55
2023-04-16T18:28:05.139Z,17.50
2023-04-16T18:30:34.414Z,18.73
2023-04-16T18:33:30.519Z,18.75
2023-04-16T18:35:48.216Z,18.63
2023-04-16T18:38:14.925Z,17.63
2023-04-16T18:40:42.248Z,17.73
2023-04-16T18:43:09.535Z,17.45
2023-04-16T18:45:37.181Z,19.70
2023-04-16T18:48:04.323Z,19.02
2023-04-16T18:50:32.185Z,18.88
2023-04-16T18:52:59.068Z,18.52
2023-04-16T18:55:26.117Z,20.20
2023-04-16T18:57:53.254Z,19.40
2023-04-16T19:00:20.340Z,19.58
2023-04-16T19:02:47.294Z,19.42
2023-04-16T19:05:14.224Z,20.17
2023-04-16T19:07:41.838Z,20.15
2023-04-16T19:10:08.904Z,19.58
2023-04-16T19:12:36.385Z,19.02
2023-04-16T19:15:03.808Z,19.45
2023-04-16T19:17:30.735Z,19.17
2023-04-16T19:19:58.782Z,19.55
2023-04-16T19:22:25.650Z,20.15
2023-04-16T19:24:52.372Z,20.00
2023-04-16T19:27:19.312Z,20.65
2023-04-16T19:29:46.871Z,20.85
2023-04-16T19:32:14.415Z,23.58
2023-04-16T19:34:41.440Z,23.55
2023-04-16T19:37:08.272Z,23.33
2023-04-16T19:39:35.274Z,23.98
2023-04-16T19:42:02.396Z,23.17
2023-04-16T19:44:29.341Z,24.85
2023-04-16T19:46:56.309Z,22.70
2023-04-16T19:49:25.382Z,23.88
2023-04-16T19:51:52.334Z,23.42
2023-04-16T19:54:19.128Z,26.15
2023-04-16T19:56:46.274Z,24.90
2023-04-16T19:59:13.177Z,25.40
2023-04-16T20:01:40.281Z,25.63
2023-04-16T20:04:07.406Z,26.48
2023-04-16T20:06:34.242Z,25.42
2023-04-16T20:09:01.087Z,24.30
2023-04-16T20:11:28.022Z,25.13
2023-04-16T20:13:54.664Z,24.73
2023-04-16T20:16:24.079Z,24.67
2023-04-16T20:18:54.328Z,25.60
2023-04-16T20:21:21.624Z,25.58
2023-04-16T20:23:48.501Z,25.40
2023-04-16T20:26:16.712Z,25.10
2023-04-16T20:28:43.472Z,25.33
2023-04-16T20:31:11.600Z,24.50
2023-04-16T20:33:41.123Z,24.08
2023-04-16T20:36:08.138Z,23.88
2023-04-16T20:38:35.807Z,26.73
2023-04-16T20:41:12.633Z,25.42
2023-04-16T20:43:41.270Z,25.02
2023-04-16T20:46:08.489Z,25.55
2023-04-16T20:48:35.805Z,24.48
2023-04-16T20:51:03.733Z,24.15
2023-04-16T20:53:33.527Z,23.63
2023-04-16T20:56:01.009Z,25.85
2023-04-16T20:58:27.685Z,23.25
2023-04-16T21:00:55.096Z,23.10
2023-04-16T21:03:22.259Z,21.75
2023-04-16T21:05:55.842Z,24.13
2023-04-16T21:08:23.029Z,23.65
2023-04-16T21:10:50.065Z,24.08
2023-04-16T21:13:16.978Z,24.25
2023-04-16T21:15:44.412Z,23.02
2023-04-16T21:18:11.327Z,25.70
2023-04-16T21:20:38.877Z,22.83
2023-04-16T21:23:06.497Z,23.10
2023-04-16T21:25:33.770Z,23.13
2023-04-16T21:28:00.592Z,24.13
2023-04-16T21:30:27.551Z,25.38
2023-04-16T21:32:54.904Z,22.83
2023-04-16T21:35:21.778Z,24.45
2023-04-16T21:37:48.721Z,23.65
2023-04-16T21:40:15.613Z,24.77
2023-04-16T21:42:42.546Z,25.60
2023-04-16T21:45:10.449Z,24.42
2023-04-16T21:47:37.881Z,23.38
2023-04-16T21:50:04.793Z,23.80
2023-04-16T21:52:32.876Z,24.02
2023-04-16T21:55:00.312Z,23.52
2023-04-16T21:57:27.240Z,23.70
2023-04-16T21:59:54.099Z,24.45
2023-04-16T22:02:21.109Z,22.85
2023-04-16T22:04:48.677Z,24.85
2023-04-16T22:07:16.838Z,22.80
2023-04-16T22:09:43.776Z,24.17
2023-04-16T22:12:10.741Z,24.95
2023-04-16T22:14:42.060Z,23.73
2023-04-16T22:17:13.144Z,24.95
2023-04-16T22:19:39.907Z,24.42
2023-04-16T22:22:06.801Z,25.83
2023-04-16T22:24:33.572Z,24.33
2023-04-16T22:27:00.369Z,24.58
2023-04-16T22:29:27.238Z,23.02
2023-04-16T22:31:55.100Z,23.13
2023-04-16T22:34:22.080Z,22.35
2023-04-16T22:36:48.954Z,24.30
2023-04-16T22:39:16.020Z,23.50
2023-04-16T22:41:42.822Z,23.85
2023-04-16T22:44:09.682Z,23.33
2023-04-16T22:46:37.081Z,23.75
2023-04-16T22:49:03.880Z,24.23
2023-04-16T22:51:30.752Z,21.92
2023-04-16T22:53:57.483Z,22.88
2023-04-16T22:56:28.854Z,22.92
2023-04-16T22:58:55.894Z,23.98
2023-04-16T23:01:23.364Z,22.90
2023-04-16T23:03:50.502Z,23.55
2023-04-16T23:06:17.473Z,23.55
2023-04-16T23:08:44.238Z,24.80
2023-04-16T23:11:11.232Z,23.10
2023-04-16T23:13:38.202Z,24.92
2023-04-16T23:16:05.368Z,23.55
2023-04-16T23:18:32.239Z,24.00
2023-04-16T23:20:59.010Z,25.52
2023-04-16T23:23:26.036Z,24.20
2023-04-16T23:25:53.793Z,24.15
2023-04-16T23:28:21.353Z,24.83
2023-04-16T23:30:51.238Z,24.58
2023-04-16T23:33:17.992Z,22.65
2023-04-16T23:35:46.089Z,25.35
2023-04-16T23:38:12.894Z,23.92
2023-04-16T23:40:39.774Z,24.20
2023-04-16T23:43:06.731Z,24.55
2023-04-16T23:45:33.510Z,23.70
2023-04-16T23:48:00.325Z,26.45
2023-04-16T23:50:27.118Z,24.17
2023-04-16T23:52:54.087Z,23.80
2023-04-16T23:55:20.968Z,24.95
2023-04-16T23:57:47.752Z,24.80
